createdAt,value
2023-01-28T00:01:18.545Z,95766.09
2023-01-28T00:03:46.198Z,95772.06
2023-01-28T00:06:15.851Z,95771.44
2023-01-28T00:08:44.846Z,95763.88
2023-01-28T00:11:16.197Z,95763.44
2023-01-28T00:13:44.557Z,95766.09
2023-01-28T00:16:12.850Z,95764.88
2023-01-28T00:18:40.784Z,95760.16
2023-01-28T00:21:11.039Z,95760.19
2023-01-28T00:23:43.010Z,95754.84
2023-01-28T00:26:14.840Z,95763.88
2023-01-28T00:28:42.899Z,95760.41
2023-01-28T00:31:13.554Z,95765.72
2023-01-28T00:33:41.217Z,95760.59
2023-01-28T00:36:10.269Z,95760.97
2023-01-28T00:38:38.063Z,95766.09
2023-01-28T00:41:10.365Z,95769.63
2023-01-28T00:43:41.837Z,95763.47
2023-01-28T00:46:11.163Z,95770.84
2023-01-28T00:48:43.028Z,95760.81
2023-01-28T00:51:12.348Z,95764.72
2023-01-28T00:53:40.351Z,95765.53
2023-01-28T00:56:10.177Z,95766.56
2023-01-28T00:58:39.199Z,95766.75
2023-01-28T01:01:11.569Z,95761.84
2023-01-28T01:03:40.272Z,95760.41
2023-01-28T01:06:08.894Z,95767.16
2023-01-28T01:08:39.919Z,95771.06
2023-01-28T01:11:08.962Z,95770.44
2023-01-28T01:13:37.238Z,95766.56
2023-01-28T01:16:08.884Z,95775.16
2023-01-28T01:18:36.787Z,95774.53
2023-01-28T01:21:09.572Z,95776.38
2023-01-28T01:23:37.540Z,95765.31
2023-01-28T01:26:05.730Z,95776.81
2023-01-28T01:28:33.477Z,95778.03
2023-01-28T01:31:05.128Z,95771.25
2023-01-28T01:33:34.383Z,95777.41
2023-01-28T01:36:02.099Z,95772.91
2023-01-28T01:38:30.647Z,95775.56
2023-01-28T01:40:59.743Z,95778.44
2023-01-28T01:43:47.338Z,95784.41
2023-01-28T01:46:22.093Z,95785.03
2023-01-28T01:48:51.988Z,95778.25
2023-01-28T01:51:24.294Z,95790.56
2023-01-28T01:53:55.807Z,95792.41
2023-01-28T01:56:29.403Z,95796.69
2023-01-28T01:58:58.373Z,95796.50
2023-01-28T02:01:30.499Z,95790.34
2023-01-28T02:04:05.565Z,95788.72
2023-01-28T02:06:34.228Z,95792.19
2023-01-28T02:09:02.334Z,95792.19
2023-01-28T02:11:33.420Z,95794.44
2023-01-28T02:14:04.789Z,95794.03
2023-01-28T02:16:33.569Z,95791.38
2023-01-28T02:19:03.117Z,95795.44
2023-01-28T02:22:02.506Z,95793.59
2023-01-28T02:24:58.027Z,95798.34
2023-01-28T02:27:30.409Z,95795.88
2023-01-28T02:30:04.044Z,95795.69
2023-01-28T02:32:37.714Z,95799.38
2023-01-28T02:35:13.614Z,95793.84
2023-01-28T02:37:47.969Z,95794.66
2023-01-28T02:40:21.252Z,95794.44
2023-01-28T02:42:49.530Z,95797.53
2023-01-28T02:45:23.236Z,95797.72
2023-01-28T02:47:58.681Z,95805.09
2023-01-28T02:50:33.062Z,95804.06
2023-01-28T02:53:31.988Z,95812.88
2023-01-28T02:56:08.647Z,95793.81
2023-01-28T02:58:46.309Z,95804.06
2023-01-28T03:01:23.003Z,95803.88
2023-01-28T03:03:59.688Z,95803.66
2023-01-28T03:06:34.469Z,95812.88
2023-01-28T03:09:22.715Z,95808.78
2023-01-28T03:12:11.188Z,95807.75
2023-01-28T03:14:57.471Z,95807.97
2023-01-28T03:17:49.151Z,95813.09
2023-01-28T03:20:34.887Z,95817.19
2023-01-28T03:23:25.082Z,95814.13
2023-01-28T03:26:14.785Z,95814.50
2023-01-28T03:29:02.470Z,95810.63
2023-01-28T03:31:47.961Z,95820.06
2023-01-28T03:34:34.431Z,95825.38
2023-01-28T03:37:02.266Z,95821.69
2023-01-28T03:39:31.580Z,95828.44
2023-01-28T03:42:01.474Z,95825.56
2023-01-28T03:44:47.071Z,95822.91
2023-01-28T03:47:14.820Z,95827.44
2023-01-28T03:49:46.094Z,95818.00
2023-01-28T03:52:14.105Z,95823.75
2023-01-28T03:54:41.963Z,95832.75
2023-01-28T03:57:11.049Z,95826.41
2023-01-28T03:59:38.661Z,95830.31
2023-01-28T04:02:06.426Z,95830.50
2023-01-28T04:04:34.068Z,95832.97
2023-01-28T04:07:03.109Z,95831.13
2023-01-28T04:09:30.740Z,95834.81
2023-01-28T04:11:58.626Z,95839.94
2023-01-28T04:14:26.269Z,95843.81
2023-01-28T04:16:54.876Z,95839.31
2023-01-28T04:19:22.887Z,95835.63
2023-01-28T04:21:50.688Z,95835.63
2023-01-28T04:24:19.762Z,95847.09
2023-01-28T04:26:47.483Z,95847.72
2023-01-28T04:29:15.290Z,95855.28
2023-01-28T04:31:43.061Z,95847.28
2023-01-28T04:34:10.883Z,95846.28
2023-01-28T04:36:38.525Z,95859.81
2023-01-28T04:39:06.211Z,95858.97
2023-01-28T04:41:35.200Z,95858.56
2023-01-28T04:44:03.124Z,95861.44
2023-01-28T04:46:30.780Z,95862.03
2023-01-28T04:48:58.434Z,95856.72
2023-01-28T04:51:26.220Z,95864.50
2023-01-28T04:53:53.854Z,95861.84
2023-01-28T04:56:21.501Z,95866.56
2023-01-28T04:58:50.493Z,95868.41
2023-01-28T05:01:18.204Z,95877.63
2023-01-28T05:03:45.926Z,95873.13
2023-01-28T05:06:13.626Z,95872.09
2023-01-28T05:08:41.270Z,95876.81
2023-01-28T05:11:08.988Z,95878.25
2023-01-28T05:13:36.633Z,95879.06
2023-01-28T05:16:06.178Z,95877.22
2023-01-28T05:18:33.812Z,95882.75
2023-01-28T05:21:01.437Z,95875.78
2023-01-28T05:23:29.059Z,95876.81
2023-01-28T05:25:56.673Z,95872.91
2023-01-28T05:28:24.343Z,95875.16
2023-01-28T05:30:52.075Z,95885.22
2023-01-28T05:33:21.161Z,95889.31
2023-01-28T05:35:49.544Z,95886.84
2023-01-28T05:38:17.355Z,95896.66
2023-01-28T05:40:45.005Z,95899.13
2023-01-28T05:43:12.661Z,95897.50
2023-01-28T05:45:40.788Z,95896.88
2023-01-28T05:48:08.961Z,95906.91
2023-01-28T05:50:38.062Z,95898.09
2023-01-28T05:53:06.702Z,95907.75
2023-01-28T05:55:34.406Z,95916.75
2023-01-28T05:58:02.198Z,95919.22
2023-01-28T06:00:29.851Z,95918.19
2023-01-28T06:02:57.596Z,95917.16
2023-01-28T06:05:25.392Z,95912.66
2023-01-28T06:07:54.500Z,95920.44
2023-01-28T06:10:22.262Z,95916.56
2023-01-28T06:12:50.131Z,95922.88
2023-01-28T06:15:17.941Z,95930.25
2023-01-28T06:17:45.622Z,95930.44
2023-01-28T06:20:13.958Z,95932.91
2023-01-28T06:22:41.818Z,95936.00
2023-01-28T06:25:11.143Z,95932.50
2023-01-28T06:27:38.788Z,95936.41
2023-01-28T06:30:07.600Z,95940.06
2023-01-28T06:32:35.303Z,95941.09
2023-01-28T06:35:02.961Z,95945.81
2023-01-28T06:37:30.632Z,95950.31
2023-01-28T06:39:58.284Z,95940.69
2023-01-28T06:42:27.307Z,95946.00
2023-01-28T06:44:54.938Z,95946.63
2023-01-28T06:47:22.577Z,95953.38
2023-01-28T06:49:50.243Z,95960.13
2023-01-28T06:52:17.909Z,95957.88
2023-01-28T06:54:45.578Z,95960.34
2023-01-28T06:57:13.320Z,95966.28
2023-01-28T06:59:42.392Z,95959.75
2023-01-28T07:02:11.970Z,95967.94
2023-01-28T07:04:39.662Z,95961.38
2023-01-28T07:07:07.335Z,95966.09
2023-01-28T07:09:35.026Z,95968.94
2023-01-28T07:12:05.196Z,95972.84
2023-01-28T07:14:33.391Z,95961.22
2023-01-28T07:17:02.481Z,95963.84
2023-01-28T07:19:30.215Z,95971.41
2023-01-28T07:22:00.789Z,95959.53
2023-01-28T07:24:28.546Z,95972.06
2023-01-28T07:26:56.327Z,95974.53
2023-01-28T07:29:24.120Z,95977.00
2023-01-28T07:31:51.881Z,95981.09
2023-01-28T07:34:21.024Z,95989.31
2023-01-28T07:36:48.684Z,95987.25
2023-01-28T07:39:16.354Z,95987.84
2023-01-28T07:41:44.024Z,95995.06
2023-01-28T07:44:11.911Z,96002.84
2023-01-28T07:46:39.603Z,95998.94
2023-01-28T07:49:07.529Z,95997.72
2023-01-28T07:51:36.565Z,96004.28
2023-01-28T07:54:04.286Z,96006.75
2023-01-28T07:56:32.470Z,96010.44
2023-01-28T07:59:00.143Z,96012.91
2023-01-28T08:01:27.920Z,96013.50
2023-01-28T08:03:55.576Z,96011.47
2023-01-28T08:06:23.200Z,96013.50
2023-01-28T08:08:52.801Z,96019.66
2023-01-28T08:11:21.081Z,96023.97
2023-01-28T08:13:49.865Z,96025.41
2023-01-28T08:16:17.629Z,96034.63
2023-01-28T08:18:45.351Z,96022.53
2023-01-28T08:21:13.011Z,96023.78
2023-01-28T08:23:40.678Z,96033.63
2023-01-28T08:26:09.711Z,96031.34
2023-01-28T08:28:37.414Z,96038.53
2023-01-28T08:31:05.393Z,96041.19
2023-01-28T08:33:33.200Z,96036.50
2023-01-28T08:36:04.252Z,96043.88
2023-01-28T08:38:31.995Z,96044.31
2023-01-28T08:40:59.976Z,96042.22
2023-01-28T08:43:29.034Z,96040.59
2023-01-28T08:45:56.664Z,96049.63
2023-01-28T08:48:24.355Z,96049.84
2023-01-28T08:50:52.036Z,96040.81
2023-01-28T08:53:21.354Z,96043.06
2023-01-28T08:55:49.058Z,96047.78
2023-01-28T08:58:19.045Z,96047.78
2023-01-28T09:00:49.050Z,96050.84
2023-01-28T09:03:17.099Z,96054.56
2023-01-28T09:05:45.462Z,96050.44
2023-01-28T09:08:15.407Z,96050.44
2023-01-28T09:10:43.689Z,96050.66
2023-01-28T09:13:13.394Z,96052.28
2023-01-28T09:15:41.266Z,96054.75
2023-01-28T09:18:10.605Z,96059.44
2023-01-28T09:20:39.149Z,96052.00
2023-01-28T09:23:07.918Z,96045.84
2023-01-28T09:25:36.331Z,96052.63
2023-01-28T09:28:04.660Z,96058.97
2023-01-28T09:30:32.575Z,96059.97
2023-01-28T09:33:00.882Z,96059.72
2023-01-28T09:35:29.946Z,96063.00
2023-01-28T09:37:58.541Z,96054.97
2023-01-28T09:40:34.226Z,96049.00
2023-01-28T09:43:25.825Z,96049.03
2023-01-28T09:45:56.287Z,96047.75
2023-01-28T09:48:32.837Z,96051.47
2023-01-28T09:51:02.522Z,96047.34
2023-01-28T09:53:32.785Z,96042.38
2023-01-28T09:56:03.964Z,96034.75
2023-01-28T09:58:32.200Z,96045.78
2023-01-28T10:01:05.840Z,96043.22
2023-01-28T10:03:43.443Z,96033.75
2023-01-28T10:06:22.024Z,96036.53
2023-01-28T10:09:19.269Z,96030.53
2023-01-28T10:12:14.838Z,96028.78
2023-01-28T10:14:54.563Z,96032.78
2023-01-28T10:17:27.789Z,96030.06
2023-01-28T10:20:01.654Z,96030.91
2023-01-28T10:22:36.567Z,96027.81
2023-01-28T10:25:15.020Z,96019.34
2023-01-28T10:27:44.609Z,96017.97
2023-01-28T10:30:19.366Z,96013.63
2023-01-28T10:32:52.725Z,96013.91
2023-01-28T10:35:20.621Z,96018.75
2023-01-28T10:37:50.306Z,96011.59
2023-01-28T10:40:18.912Z,96013.03
2023-01-28T10:42:47.113Z,96016.91
2023-01-28T10:45:20.338Z,96013.91
2023-01-28T10:47:52.787Z,96016.78
2023-01-28T10:50:24.257Z,96011.41
2023-01-28T10:52:55.679Z,96011.09
2023-01-28T10:55:25.440Z,96001.94
2023-01-28T10:57:54.297Z,96003.13
2023-01-28T11:00:28.154Z,96013.16
2023-01-28T11:02:56.215Z,96009.97
2023-01-28T11:05:27.241Z,96003.38
2023-01-28T11:08:07.414Z,96005.16
2023-01-28T11:10:38.232Z,96009.63
2023-01-28T11:13:07.566Z,96007.53
2023-01-28T11:15:35.319Z,96006.34
2023-01-28T11:18:09.636Z,96004.84
2023-01-28T11:20:42.576Z,96008.63
2023-01-28T11:23:33.591Z,96002.19
2023-01-28T11:26:08.819Z,96006.94
2023-01-28T11:28:41.879Z,96009.53
2023-01-28T11:31:13.110Z,96011.16
2023-01-28T11:33:45.792Z,96014.09
2023-01-28T11:36:16.760Z,96015.03
2023-01-28T11:38:54.663Z,96014.63
2023-01-28T11:41:29.573Z,96010.00
2023-01-28T11:43:58.790Z,96013.91
2023-01-28T11:46:49.034Z,96019.66
2023-01-28T11:49:28.816Z,96017.00
2023-01-28T11:52:06.047Z,96008.41
2023-01-28T11:54:47.522Z,96018.38
2023-01-28T11:57:25.038Z,96013.00
2023-01-28T12:00:01.007Z,96007.78
2023-01-28T12:02:46.137Z,96002.78
2023-01-28T12:05:28.425Z,96001.25
2023-01-28T12:08:04.966Z,96005.22
2023-01-28T12:10:42.084Z,95995.00
2023-01-28T12:13:40.790Z,95997.19
2023-01-28T12:16:33.269Z,96004.03
2023-01-28T12:19:16.240Z,96001.72
2023-01-28T12:21:56.087Z,95997.34
2023-01-28T12:24:37.679Z,95996.44
2023-01-28T12:27:16.451Z,95991.88
2023-01-28T12:29:55.979Z,96001.41
2023-01-28T12:32:40.279Z,95997.84
2023-01-28T12:35:32.609Z,96004.03
2023-01-28T12:38:08.904Z,96005.00
2023-01-28T12:40:54.537Z,96013.72
2023-01-28T12:43:32.782Z,96012.06
2023-01-28T12:46:06.155Z,96006.50
2023-01-28T12:48:39.101Z,96003.13
2023-01-28T12:51:15.485Z,96013.22
2023-01-28T12:53:50.495Z,95994.47
2023-01-28T12:56:21.212Z,96003.94
2023-01-28T12:58:55.312Z,96006.38
2023-01-28T13:01:28.569Z,96005.00
2023-01-28T13:04:02.735Z,96003.34
2023-01-28T13:06:34.672Z,96005.19
2023-01-28T13:09:12.768Z,96009.94
2023-01-28T13:11:41.363Z,96000.97
2023-01-28T13:14:13.677Z,96000.41
2023-01-28T13:16:41.468Z,96004.19
2023-01-28T13:19:22.573Z,96004.41
2023-01-28T13:21:50.765Z,96015.22
2023-01-28T13:24:24.983Z,96005.00
2023-01-28T13:26:54.377Z,96013.31
2023-01-28T13:29:32.093Z,96014.91
2023-01-28T13:32:01.798Z,96018.84
2023-01-28T13:34:34.042Z,96026.50
2023-01-28T13:37:06.115Z,96026.72
2023-01-28T13:39:36.485Z,96024.09
2023-01-28T13:42:21.938Z,96024.84
2023-01-28T13:44:51.133Z,96022.13
2023-01-28T13:47:26.779Z,96025.03
2023-01-28T13:49:59.463Z,96030.47
2023-01-28T13:52:30.415Z,96042.06
2023-01-28T13:55:04.569Z,96048.25
2023-01-28T13:58:08.758Z,96039.63
2023-01-28T14:00:56.078Z,96047.47
2023-01-28T14:03:48.806Z,96055.25
2023-01-28T14:06:35.155Z,96057.94
2023-01-28T14:09:20.280Z,96059.56
2023-01-28T14:12:20.290Z,96057.91
2023-01-28T14:15:25.590Z,96060.84
2023-01-28T14:17:57.019Z,96061.91
2023-01-28T14:20:29.086Z,96069.16
2023-01-28T14:23:02.254Z,96065.28
2023-01-28T14:25:37.007Z,96069.19
2023-01-28T14:28:07.969Z,96066.34
2023-01-28T14:30:49.948Z,96070.25
2023-01-28T14:33:19.150Z,96073.34
2023-01-28T14:35:49.607Z,96088.19
2023-01-28T14:38:20.901Z,96078.53
2023-01-28T14:40:51.174Z,96077.50
2023-01-28T14:43:23.295Z,96082.84
2023-01-28T14:46:05.850Z,96087.75
2023-01-28T14:48:39.915Z,96087.31
2023-01-28T14:51:32.894Z,96086.34
2023-01-28T14:54:15.385Z,96093.75
2023-01-28T14:56:58.348Z,96091.34
2023-01-28T14:59:30.557Z,96092.16
2023-01-28T15:02:00.480Z,96095.84
2023-01-28T15:04:31.933Z,96104.09
2023-01-28T15:07:16.210Z,96096.06
2023-01-28T15:09:44.127Z,96104.50
2023-01-28T15:12:12.694Z,96109.44
2023-01-28T15:14:41.760Z,96103.47
2023-01-28T15:17:26.368Z,96111.91
2023-01-28T15:19:57.009Z,96112.13
2023-01-28T15:22:28.562Z,96121.78
2023-01-28T15:24:57.140Z,96108.25
2023-01-28T15:27:29.836Z,96113.59
2023-01-28T15:29:59.787Z,96108.44
2023-01-28T15:32:29.659Z,96116.66
2023-01-28T15:35:01.138Z,96114.19
2023-01-28T15:37:28.947Z,96121.59
2023-01-28T15:40:06.009Z,96119.53
2023-01-28T15:42:34.523Z,96124.47
2023-01-28T15:45:02.412Z,96132.50
2023-01-28T15:47:35.339Z,96135.38
2023-01-28T15:50:08.188Z,96142.75
2023-01-28T15:52:38.204Z,96146.25
2023-01-28T15:55:08.440Z,96147.06
2023-01-28T15:57:36.503Z,96146.47
2023-01-28T16:00:13.190Z,96152.66
2023-01-28T16:02:44.768Z,96149.34
2023-01-28T16:05:28.242Z,96143.84
2023-01-28T16:07:58.390Z,96151.44
2023-01-28T16:10:28.368Z,96152.25
2023-01-28T16:13:06.206Z,96157.56
2023-01-28T16:15:35.117Z,96159.84
2023-01-28T16:18:03.947Z,96160.47
2023-01-28T16:20:33.893Z,96156.38
2023-01-28T16:23:04.022Z,96164.56
2023-01-28T16:25:34.058Z,96167.44
2023-01-28T16:28:03.910Z,96175.44
2023-01-28T16:30:32.023Z,96168.47
2023-01-28T16:33:00.299Z,96173.59
2023-01-28T16:35:42.935Z,96181.00
2023-01-28T16:38:17.788Z,96175.44
2023-01-28T16:40:46.557Z,96179.75
2023-01-28T16:43:15.982Z,96178.31
2023-01-28T16:45:44.292Z,96182.44
2023-01-28T16:48:12.138Z,96191.47
2023-01-28T16:50:41.295Z,96191.25
2023-01-28T16:53:22.438Z,96194.13
2023-01-28T16:55:51.788Z,96196.19
2023-01-28T16:58:24.914Z,96200.06
2023-01-28T17:00:53.206Z,96206.84
2023-01-28T17:03:20.924Z,96198.44
2023-01-28T17:05:48.622Z,96202.13
2023-01-28T17:08:16.949Z,96206.25
2023-01-28T17:10:46.054Z,96204.19
2023-01-28T17:13:13.734Z,96209.75
2023-01-28T17:15:41.434Z,96210.16
2023-01-28T17:18:12.873Z,96205.25
2023-01-28T17:20:41.144Z,96211.59
2023-01-28T17:23:09.533Z,96214.47
2023-01-28T17:25:38.978Z,96215.91
2023-01-28T17:28:08.897Z,96218.16
2023-01-28T17:30:41.204Z,96225.78
2023-01-28T17:33:09.917Z,96217.16
2023-01-28T17:35:37.724Z,96226.16
2023-01-28T17:38:06.361Z,96224.53
2023-01-28T17:40:34.262Z,96223.69
2023-01-28T17:43:01.962Z,96226.81
2023-01-28T17:45:32.831Z,96227.81
2023-01-28T17:48:00.662Z,96232.53
2023-01-28T17:50:28.478Z,96232.75
2023-01-28T17:52:56.539Z,96232.53
2023-01-28T17:55:24.391Z,96240.31
2023-01-28T17:57:52.464Z,96227.59
2023-01-28T18:00:22.394Z,96243.41
2023-01-28T18:02:52.845Z,96239.50
2023-01-28T18:05:20.928Z,96241.16
2023-01-28T18:07:50.267Z,96246.06
2023-01-28T18:10:19.095Z,96245.84
2023-01-28T18:12:46.889Z,96236.63
2023-01-28T18:15:14.898Z,96245.03
2023-01-28T18:17:42.803Z,96245.63
2023-01-28T18:20:12.957Z,96245.84
2023-01-28T18:22:40.736Z,96249.13
2023-01-28T18:25:09.054Z,96253.22
2023-01-28T18:27:36.774Z,96253.03
2023-01-28T18:30:05.478Z,96262.25
2023-01-28T18:32:33.187Z,96261.44
2023-01-28T18:35:02.213Z,96266.16
2023-01-28T18:37:31.234Z,96270.47
2023-01-28T18:39:58.991Z,96260.66
2023-01-28T18:42:27.324Z,96259.44
2023-01-28T18:44:54.977Z,96262.09
2023-01-28T18:47:23.078Z,96269.28
2023-01-28T18:49:50.730Z,96266.63
2023-01-28T18:52:18.417Z,96256.97
2023-01-28T18:54:47.645Z,96272.78
2023-01-28T18:57:15.979Z,96270.72
2023-01-28T18:59:43.666Z,96281.59
2023-01-28T19:02:15.634Z,96273.41
2023-01-28T19:04:43.553Z,96277.09
2023-01-28T19:07:11.984Z,96271.13
2023-01-28T19:09:39.793Z,96268.47
2023-01-28T19:12:08.913Z,96269.09
2023-01-28T19:14:36.589Z,96272.97
2023-01-28T19:17:04.326Z,96269.25
2023-01-28T19:19:32.156Z,96273.16
2023-01-28T19:21:59.829Z,96275.38
2023-01-28T19:24:27.810Z,96281.97
2023-01-28T19:26:55.640Z,96271.50
2023-01-28T19:29:27.206Z,96262.25
2023-01-28T19:31:55.018Z,96268.81
2023-01-28T19:34:22.720Z,96274.34
2023-01-28T19:36:50.405Z,96270.84
2023-01-28T19:39:18.420Z,96273.72
2023-01-28T19:41:46.118Z,96275.34
2023-01-28T19:44:14.151Z,96273.09
2023-01-28T19:46:43.240Z,96284.19
2023-01-28T19:49:12.595Z,96275.13
2023-01-28T19:51:40.413Z,96268.38
2023-01-28T19:54:08.136Z,96277.19
2023-01-28T19:56:37.560Z,96280.69
2023-01-28T19:59:05.750Z,96280.47
2023-01-28T20:01:33.529Z,96281.28
2023-01-28T20:04:02.711Z,96284.16
2023-01-28T20:06:32.423Z,96289.72
2023-01-28T20:09:02.854Z,96280.06
2023-01-28T20:11:30.661Z,96281.66
2023-01-28T20:13:59.832Z,96279.63
2023-01-28T20:16:29.399Z,96279.44
2023-01-28T20:18:59.129Z,96284.78
2023-01-28T20:21:29.581Z,96285.78
2023-01-28T20:23:59.132Z,96282.88
2023-01-28T20:26:31.223Z,96281.44
2023-01-28T20:29:01.541Z,96286.34
2023-01-28T20:31:29.542Z,96290.88
2023-01-28T20:33:57.315Z,96282.88
2023-01-28T20:36:25.061Z,96289.25
2023-01-28T20:38:54.105Z,96286.34
2023-01-28T20:41:24.038Z,96292.72
2023-01-28T20:43:53.162Z,96291.28
2023-01-28T20:46:22.933Z,96296.59
2023-01-28T20:48:50.924Z,96301.31
2023-01-28T20:51:20.451Z,96293.94
2023-01-28T20:53:49.038Z,96295.78
2023-01-28T20:56:19.416Z,96301.94
2023-01-28T20:58:49.160Z,96296.81
2023-01-28T21:01:18.311Z,96303.97
2023-01-28T21:03:46.186Z,96306.44
2023-01-28T21:06:13.993Z,96304.59
2023-01-28T21:08:41.912Z,96300.72
2023-01-28T21:11:10.209Z,96302.56
2023-01-28T21:13:39.752Z,96313.25
2023-01-28T21:16:08.172Z,96312.41
2023-01-28T21:18:36.159Z,96308.50
2023-01-28T21:21:05.972Z,96316.94
2023-01-28T21:23:33.806Z,96318.78
2023-01-28T21:26:03.187Z,96316.09
2023-01-28T21:28:31.341Z,96314.06
2023-01-28T21:31:08.788Z,96315.28
2023-01-28T21:33:36.913Z,96316.09
2023-01-28T21:36:09.994Z,96307.91
2023-01-28T21:38:37.829Z,96320.00
2023-01-28T21:41:06.204Z,96314.88
2023-01-28T21:43:34.643Z,96322.28
2023-01-28T21:46:03.270Z,96326.97
2023-01-28T21:48:32.440Z,96315.09
2023-01-28T21:51:23.574Z,96329.25
2023-01-28T21:53:51.507Z,96325.38
2023-01-28T21:56:19.466Z,96326.22
2023-01-28T21:59:04.639Z,96326.19
2023-01-28T22:01:32.504Z,96322.69
2023-01-28T22:04:01.793Z,96321.88
2023-01-28T22:06:29.853Z,96326.19
2023-01-28T22:08:57.979Z,96321.06
2023-01-28T22:11:25.812Z,96330.72
2023-01-28T22:13:53.572Z,96323.72
2023-01-28T22:16:21.352Z,96328.44
2023-01-28T22:18:50.172Z,96329.63
2023-01-28T22:21:20.107Z,96330.06
2023-01-28T22:23:47.768Z,96326.78
2023-01-28T22:26:15.516Z,96331.28
2023-01-28T22:28:43.248Z,96331.09
2023-01-28T22:31:13.254Z,96341.13
2023-01-28T22:33:41.266Z,96343.59
2023-01-28T22:36:13.054Z,96333.13
2023-01-28T22:38:43.261Z,96324.13
2023-01-28T22:41:13.355Z,96322.88
2023-01-28T22:43:41.440Z,96320.22
2023-01-28T22:46:10.707Z,96318.56
2023-01-28T22:48:39.498Z,96314.06
2023-01-28T22:51:09.036Z,96321.25
2023-01-28T22:53:36.838Z,96317.31
2023-01-28T23:01:40.071Z,96318.53
2023-01-28T23:04:07.802Z,96313.78
2023-01-28T23:06:37.103Z,96313.97
2023-01-28T23:09:05.365Z,96318.69
2023-01-28T23:11:33.262Z,96314.59
2023-01-28T23:14:20.299Z,96306.84
2023-01-28T23:17:07.579Z,96316.88
2023-01-28T23:19:53.220Z,96315.84
2023-01-28T23:22:41.746Z,96309.31
2023-01-28T23:25:10.155Z,96314.66
2023-01-28T23:27:37.986Z,96312.81
2023-01-28T23:30:09.821Z,96312.81
2023-01-28T23:32:40.424Z,96313.00
2023-01-28T23:35:08.867Z,96311.97
2023-01-28T23:37:36.591Z,96317.13
2023-01-28T23:40:04.798Z,96314.25
2023-01-28T23:42:32.586Z,96307.91
2023-01-28T23:45:00.810Z,96309.75
2023-01-28T23:47:28.617Z,96307.09
2023-01-28T23:49:57.666Z,96301.13
2023-01-28T23:52:26.620Z,96311.97
2023-01-28T23:54:54.304Z,96304.38
2023-01-28T23:57:22.004Z,96306.59
2023-01-28T23:59:49.709Z,96303.75
